Victoria 5 — WDD2873 — position and weather

sailwx.info

Track history (hours):
 
Tides and Currents Weather Stations Pressure Air Temp Water Temp Dewpoint Dewpoint Depression Visibility Wind Speed Wind Dir Waves Ship Positions

Victoria 5

Owner: Campbell, Mike, Pomona, CA. More information available from US FCC via Universal Licensing System and Coast Guard Vessel Documentation Center.

Last reported at 2018-May-11 14:38 UTC. Time now 2018-Jun-24 03:35 UTC.
Position N 40°42' W 074°00'.
Warning: this ship's position is 43 days out of date.

Length 30 m.

Type: Pleasure craft. MMSI: 367120970.

Date/timePositionNaut miles runAvg speedWind from/ knotsBaromVisibWave heightAir tempDewpointWater temp
2018-May-11 14:38N 40°42' W 074°00'1 8.9
2018-May-11 14:30N 40°42' W 074°01'5710.3
2018-May-11 08:59N 39°45' W 074°03'815.6
2018-May-11 08:30N 39°38' W 074°07'326 9.8
2018-May-09 23:11N 34°35' W 076°37'210.1
2018-May-09 22:59N 34°36' W 076°38'510.2
2018-May-09 22:30N 34°41' W 076°40'2 4.2
2018-May-09 21:59N 34°43' W 076°40'0 0.0
2018-May-09 21:29N 34°43' W 076°40'0 0.0
2018-May-09 20:59N 34°43' W 076°40'0 0.0
2018-May-09 20:29N 34°43' W 076°40'0 0.0
2018-May-09 19:59N 34°43' W 076°40'1 2.5
2018-May-09 19:30N 34°42' W 076°40'5 9.4
2018-May-09 19:00N 34°38' W 076°43'  
2018-May-06 18:37N 26°60' W 080°02'213.8
2018-May-06 18:30N 26°58' W 080°01'  
Track history (hours):
 
Tides and Currents Weather Stations Pressure Air Temp Water Temp Dewpoint Dewpoint Depression Visibility Wind Speed Wind Dir Waves Ship Positions

Victoria 5

Owner: Campbell, Mike, Pomona, CA. More information available from US FCC via Universal Licensing System and Coast Guard Vessel Documentation Center.

Last reported at 2018-May-11 14:38 UTC. Time now 2018-Jun-24 03:35 UTC.
Position N 40°42' W 074°00'.
Warning: this ship's position is 43 days out of date.

Length 30 m.

Type: Pleasure craft. MMSI: 367120970.

Date/timePositionNaut miles runAvg speedWind from/ knotsBaromVisibWave heightAir tempDewpointWater temp
2018-May-11 14:38N 40°42' W 074°00'1 8.9
2018-May-11 14:30N 40°42' W 074°01'5710.3
2018-May-11 08:59N 39°45' W 074°03'815.6
2018-May-11 08:30N 39°38' W 074°07'326 9.8
2018-May-09 23:11N 34°35' W 076°37'210.1
2018-May-09 22:59N 34°36' W 076°38'510.2
2018-May-09 22:30N 34°41' W 076°40'2 4.2
2018-May-09 21:59N 34°43' W 076°40'0 0.0
2018-May-09 21:29N 34°43' W 076°40'0 0.0
2018-May-09 20:59N 34°43' W 076°40'0 0.0
2018-May-09 20:29N 34°43' W 076°40'0 0.0
2018-May-09 19:59N 34°43' W 076°40'1 2.5
2018-May-09 19:30N 34°42' W 076°40'5 9.4
2018-May-09 19:00N 34°38' W 076°43'  
2018-May-06 18:37N 26°60' W 080°02'213.8
2018-May-06 18:30N 26°58' W 080°01'  

Dump ship's entire track history